Sherman, Illinois
Current Conditions -  °F | °C
As of 4:52 PM on Thursday 20 Nov 2014 (Local Time) from KSPI Reporting Station
Clear Clear  
Wind Chill: 19°   Ceiling: Unl
Heat Index: 26°   Visibility: 10mi
Dew Point: 11°   Wind: 6mph
Humidity: 53%   Direction: 280°W
Pressure: 30.22"   Gusts: NA
Location:  39.89°N, 89.6°W
Report Text: KSPI 202252Z 28005KT 10SM CLR M03/M12 A3022 RMK AO2 SLP242 T10331117
Loading
Personal Weather Stations






























Interactive Weather Map New forecast layout! Learn more

10-Day Weather Forecast

Advertisements
Track Severe Weather on mobile